sensor_id;sensor_type;location;lat;lon;timestamp;temperature;humidity
2757;DHT22;1386;50.862;6.494;2023-07-08T00:05:13;21.90;86.90
2757;DHT22;1386;50.862;6.494;2023-07-08T00:07:43;21.80;88.50
2757;DHT22;1386;50.862;6.494;2023-07-08T00:10:15;21.80;89.70
2757;DHT22;1386;50.862;6.494;2023-07-08T00:12:45;21.80;88.40
2757;DHT22;1386;50.862;6.494;2023-07-08T00:15:16;21.80;89.10
2757;DHT22;1386;50.862;6.494;2023-07-08T00:17:43;21.80;89.50
2757;DHT22;1386;50.862;6.494;2023-07-08T00:20:23;21.70;88.50
2757;DHT22;1386;50.862;6.494;2023-07-08T00:22:56;21.70;89.00
2757;DHT22;1386;50.862;6.494;2023-07-08T00:25:24;21.70;90.00
2757;DHT22;1386;50.862;6.494;2023-07-08T00:27:51;21.70;89.60
2757;DHT22;1386;50.862;6.494;2023-07-08T00:30:28;21.70;89.90
2757;DHT22;1386;50.862;6.494;2023-07-08T00:32:57;21.60;90.00
2757;DHT22;1386;50.862;6.494;2023-07-08T00:35:30;21.60;90.40
2757;DHT22;1386;50.862;6.494;2023-07-08T00:37:58;21.60;90.40
2757;DHT22;1386;50.862;6.494;2023-07-08T00:40:28;21.60;90.60
2757;DHT22;1386;50.862;6.494;2023-07-08T00:42:56;21.60;91.00
2757;DHT22;1386;50.862;6.494;2023-07-08T00:45:37;21.50;90.90
2757;DHT22;1386;50.862;6.494;2023-07-08T00:48:19;21.50;91.60
2757;DHT22;1386;50.862;6.494;2023-07-08T00:50:52;21.50;91.30
2757;DHT22;1386;50.862;6.494;2023-07-08T00:53:27;21.50;91.60
2757;DHT22;1386;50.862;6.494;2023-07-08T00:55:57;21.40;91.60
2757;DHT22;1386;50.862;6.494;2023-07-08T00:58:27;21.40;91.50
2757;DHT22;1386;50.862;6.494;2023-07-08T01:00:55;21.30;90.90
2757;DHT22;1386;50.862;6.494;2023-07-08T01:03:23;21.30;90.70
2757;DHT22;1386;50.862;6.494;2023-07-08T01:05:52;21.30;90.60
2757;DHT22;1386;50.862;6.494;2023-07-08T01:08:24;21.30;90.20
2757;DHT22;1386;50.862;6.494;2023-07-08T01:11:01;21.30;89.80
2757;DHT22;1386;50.862;6.494;2023-07-08T01:13:31;21.30;88.90
2757;DHT22;1386;50.862;6.494;2023-07-08T01:15:59;21.30;87.60
2757;DHT22;1386;50.862;6.494;2023-07-08T01:18:26;21.20;87.40
2757;DHT22;1386;50.862;6.494;2023-07-08T01:20:55;21.20;87.60
2757;DHT22;1386;50.862;6.494;2023-07-08T01:23:25;21.20;89.70
2757;DHT22;1386;50.862;6.494;2023-07-08T01:25:52;21.20;91.10
2757;DHT22;1386;50.862;6.494;2023-07-08T01:28:22;21.10;91.10
2757;DHT22;1386;50.862;6.494;2023-07-08T01:30:52;21.10;92.10
2757;DHT22;1386;50.862;6.494;2023-07-08T01:33:21;21.10;92.50
2757;DHT22;1386;50.862;6.494;2023-07-08T01:35:49;21.10;92.50
2757;DHT22;1386;50.862;6.494;2023-07-08T01:38:24;21.00;92.90
2757;DHT22;1386;50.862;6.494;2023-07-08T01:40:55;20.90;92.60
2757;DHT22;1386;50.862;6.494;2023-07-08T01:43:23;20.90;92.70
2757;DHT22;1386;50.862;6.494;2023-07-08T01:45:58;20.80;92.60
2757;DHT22;1386;50.862;6.494;2023-07-08T01:48:29;20.80;92.30
2757;DHT22;1386;50.862;6.494;2023-07-08T01:51:04;20.70;92.10
2757;DHT22;1386;50.862;6.494;2023-07-08T01:53:33;20.80;92.00
2757;DHT22;1386;50.862;6.494;2023-07-08T01:56:02;20.70;92.30
2757;DHT22;1386;50.862;6.494;2023-07-08T01:58:29;20.70;92.90
2757;DHT22;1386;50.862;6.494;2023-07-08T02:00:56;20.70;93.40
2757;DHT22;1386;50.862;6.494;2023-07-08T02:03:23;20.60;93.40
2757;DHT22;1386;50.862;6.494;2023-07-08T02:05:50;20.60;93.50
2757;DHT22;1386;50.862;6.494;2023-07-08T02:08:22;20.50;93.80
2757;DHT22;1386;50.862;6.494;2023-07-08T02:10:50;20.50;93.90
2757;DHT22;1386;50.862;6.494;2023-07-08T02:13:19;20.50;94.30
2757;DHT22;1386;50.862;6.494;2023-07-08T02:15:47;20.40;94.40
2757;DHT22;1386;50.862;6.494;2023-07-08T02:18:13;20.40;94.70
2757;DHT22;1386;50.862;6.494;2023-07-08T02:20:41;20.40;95.40
2757;DHT22;1386;50.862;6.494;2023-07-08T02:23:11;20.30;95.50
2757;DHT22;1386;50.862;6.494;2023-07-08T02:25:38;20.30;95.40
2757;DHT22;1386;50.862;6.494;2023-07-08T02:28:05;20.20;95.80
2757;DHT22;1386;50.862;6.494;2023-07-08T02:30:33;20.20;96.30
2757;DHT22;1386;50.862;6.494;2023-07-08T02:33:00;20.20;96.60
2757;DHT22;1386;50.862;6.494;2023-07-08T02:35:30;20.20;96.90
2757;DHT22;1386;50.862;6.494;2023-07-08T02:37:58;20.20;96.40
2757;DHT22;1386;50.862;6.494;2023-07-08T02:40:25;20.10;96.40
2757;DHT22;1386;50.862;6.494;2023-07-08T02:42:52;20.10;96.20
2757;DHT22;1386;50.862;6.494;2023-07-08T02:45:22;20.10;96.70
2757;DHT22;1386;50.862;6.494;2023-07-08T02:47:50;20.10;97.30
2757;DHT22;1386;50.862;6.494;2023-07-08T02:50:17;20.10;97.40
2757;DHT22;1386;50.862;6.494;2023-07-08T02:52:46;20.00;97.70
2757;DHT22;1386;50.862;6.494;2023-07-08T02:55:21;20.00;97.80
2757;DHT22;1386;50.862;6.494;2023-07-08T02:57:49;20.00;98.10
2757;DHT22;1386;50.862;6.494;2023-07-08T03:00:16;19.90;98.10
2757;DHT22;1386;50.862;6.494;2023-07-08T03:02:43;19.90;98.10
2757;DHT22;1386;50.862;6.494;2023-07-08T03:05:16;19.80;98.30
2757;DHT22;1386;50.862;6.494;2023-07-08T03:07:43;19.90;97.90
2757;DHT22;1386;50.862;6.494;2023-07-08T03:10:10;19.80;97.20
2757;DHT22;1386;50.862;6.494;2023-07-08T03:12:39;19.80;97.00
2757;DHT22;1386;50.862;6.494;2023-07-08T03:15:11;19.80;97.00
2757;DHT22;1386;50.862;6.494;2023-07-08T03:17:38;19.80;97.50
2757;DHT22;1386;50.862;6.494;2023-07-08T03:20:07;19.70;98.20
2757;DHT22;1386;50.862;6.494;2023-07-08T03:22:36;19.70;98.70
2757;DHT22;1386;50.862;6.494;2023-07-08T03:25:04;19.60;98.70
2757;DHT22;1386;50.862;6.494;2023-07-08T03:27:31;19.60;99.10
2757;DHT22;1386;50.862;6.494;2023-07-08T03:29:57;19.60;99.40
2757;DHT22;1386;50.862;6.494;2023-07-08T03:32:30;19.50;99.20
2757;DHT22;1386;50.862;6.494;2023-07-08T03:34:59;19.40;99.50
2757;DHT22;1386;50.862;6.494;2023-07-08T03:37:27;19.40;98.80
2757;DHT22;1386;50.862;6.494;2023-07-08T03:39:55;19.30;99.10
2757;DHT22;1386;50.862;6.494;2023-07-08T03:42:22;19.30;99.20
2757;DHT22;1386;50.862;6.494;2023-07-08T03:44:48;19.10;99.30
2757;DHT22;1386;50.862;6.494;2023-07-08T03:47:15;19.10;99.90
2757;DHT22;1386;50.862;6.494;2023-07-08T03:49:44;19.20;99.90
2757;DHT22;1386;50.862;6.494;2023-07-08T03:52:15;19.10;99.90
2757;DHT22;1386;50.862;6.494;2023-07-08T03:54:42;19.10;99.90
2757;DHT22;1386;50.862;6.494;2023-07-08T03:57:17;19.10;99.90
2757;DHT22;1386;50.862;6.494;2023-07-08T03:59:46;19.10;99.90
2757;DHT22;1386;50.862;6.494;2023-07-08T04:02:13;19.10;99.90
2757;DHT22;1386;50.862;6.494;2023-07-08T04:04:40;19.10;99.90
2757;DHT22;1386;50.862;6.494;2023-07-08T04:07:07;19.10;99.90
2757;DHT22;1386;50.862;6.494;2023-07-08T04:09:34;19.20;99.90
2757;DHT22;1386;50.862;6.494;2023-07-08T04:12:00;19.20;99.90
2757;DHT22;1386;50.862;6.494;2023-07-08T04:14:29;19.20;99.90
2757;DHT22;1386;50.862;6.494;2023-07-08T04:16:57;19.20;99.90
2757;DHT22;1386;50.862;6.494;2023-07-08T04:19:25;19.20;99.90
2757;DHT22;1386;50.862;6.494;2023-07-08T04:21:56;19.10;99.90
2757;DHT22;1386;50.862;6.494;2023-07-08T04:24:23;19.10;99.90
2757;DHT22;1386;50.862;6.494;2023-07-08T04:26:50;19.10;99.90
2757;DHT22;1386;50.862;6.494;2023-07-08T04:29:25;19.10;99.90
2757;DHT22;1386;50.862;6.494;2023-07-08T04:31:53;19.10;99.90
2757;DHT22;1386;50.862;6.494;2023-07-08T04:34:20;19.10;99.90
2757;DHT22;1386;50.862;6.494;2023-07-08T04:36:50;19.10;99.90
2757;DHT22;1386;50.862;6.494;2023-07-08T04:39:20;19.00;99.90
2757;DHT22;1386;50.862;6.494;2023-07-08T04:41:47;19.10;99.90
2757;DHT22;1386;50.862;6.494;2023-07-08T04:44:14;19.10;99.90
2757;DHT22;1386;50.862;6.494;2023-07-08T04:46:47;19.10;99.90
2757;DHT22;1386;50.862;6.494;2023-07-08T04:49:25;19.10;99.90
2757;DHT22;1386;50.862;6.494;2023-07-08T04:51:59;19.10;99.90
2757;DHT22;1386;50.862;6.494;2023-07-08T04:54:33;19.20;99.90
2757;DHT22;1386;50.862;6.494;2023-07-08T04:57:03;19.20;99.90
2757;DHT22;1386;50.862;6.494;2023-07-08T04:59:30;19.20;99.90
2757;DHT22;1386;50.862;6.494;2023-07-08T05:02:05;19.30;99.90
2757;DHT22;1386;50.862;6.494;2023-07-08T05:04:43;19.30;99.90
2757;DHT22;1386;50.862;6.494;2023-07-08T05:07:09;19.30;99.90
2757;DHT22;1386;50.862;6.494;2023-07-08T05:09:36;19.40;99.90
2757;DHT22;1386;50.862;6.494;2023-07-08T05:12:06;19.40;99.90
2757;DHT22;1386;50.862;6.494;2023-07-08T05:14:33;19.50;99.90
2757;DHT22;1386;50.862;6.494;2023-07-08T05:16:59;19.60;99.90
2757;DHT22;1386;50.862;6.494;2023-07-08T05:19:39;19.60;99.90
2757;DHT22;1386;50.862;6.494;2023-07-08T05:22:07;19.70;99.90
2757;DHT22;1386;50.862;6.494;2023-07-08T05:24:33;19.70;99.90
2757;DHT22;1386;50.862;6.494;2023-07-08T05:27:00;19.80;99.90
2757;DHT22;1386;50.862;6.494;2023-07-08T05:29:27;19.80;99.90
2757;DHT22;1386;50.862;6.494;2023-07-08T05:31:54;19.90;99.90
2757;DHT22;1386;50.862;6.494;2023-07-08T05:34:21;19.90;99.90
2757;DHT22;1386;50.862;6.494;2023-07-08T05:36:49;20.00;99.90
2757;DHT22;1386;50.862;6.494;2023-07-08T05:39:16;20.00;99.90
2757;DHT22;1386;50.862;6.494;2023-07-08T05:41:42;20.00;99.90
2757;DHT22;1386;50.862;6.494;2023-07-08T05:44:14;20.00;99.90
2757;DHT22;1386;50.862;6.494;2023-07-08T05:46:42;19.90;99.90
2757;DHT22;1386;50.862;6.494;2023-07-08T05:49:08;19.90;99.90
2757;DHT22;1386;50.862;6.494;2023-07-08T05:51:46;19.90;99.90
2757;DHT22;1386;50.862;6.494;2023-07-08T05:54:14;19.90;99.90
2757;DHT22;1386;50.862;6.494;2023-07-08T05:56:41;19.80;99.90
2757;DHT22;1386;50.862;6.494;2023-07-08T05:59:12;19.70;99.90
2757;DHT22;1386;50.862;6.494;2023-07-08T06:01:39;19.60;99.90
2757;DHT22;1386;50.862;6.494;2023-07-08T06:04:08;19.60;99.90
2757;DHT22;1386;50.862;6.494;2023-07-08T06:06:49;19.60;99.90
2757;DHT22;1386;50.862;6.494;2023-07-08T06:09:18;19.50;99.90
2757;DHT22;1386;50.862;6.494;2023-07-08T06:11:44;19.60;99.90
2757;DHT22;1386;50.862;6.494;2023-07-08T06:14:11;19.60;99.90
2757;DHT22;1386;50.862;6.494;2023-07-08T06:16:38;19.60;99.90
2757;DHT22;1386;50.862;6.494;2023-07-08T06:19:12;19.60;99.90
2757;DHT22;1386;50.862;6.494;2023-07-08T06:21:40;19.50;99.90
2757;DHT22;1386;50.862;6.494;2023-07-08T06:24:07;19.50;99.90
2757;DHT22;1386;50.862;6.494;2023-07-08T06:26:38;19.50;99.90
2757;DHT22;1386;50.862;6.494;2023-07-08T06:29:05;19.50;99.90
2757;DHT22;1386;50.862;6.494;2023-07-08T06:31:32;19.60;99.90
2757;DHT22;1386;50.862;6.494;2023-07-08T06:34:02;19.70;99.90
2757;DHT22;1386;50.862;6.494;2023-07-08T06:36:29;19.70;99.90
2757;DHT22;1386;50.862;6.494;2023-07-08T06:38:56;19.80;99.90
2757;DHT22;1386;50.862;6.494;2023-07-08T06:41:25;19.80;99.90
2757;DHT22;1386;50.862;6.494;2023-07-08T06:43:53;19.90;99.90
2757;DHT22;1386;50.862;6.494;2023-07-08T06:46:20;20.00;99.90
2757;DHT22;1386;50.862;6.494;2023-07-08T06:48:47;20.20;99.90
2757;DHT22;1386;50.862;6.494;2023-07-08T06:51:19;20.30;99.90
2757;DHT22;1386;50.862;6.494;2023-07-08T06:53:46;20.50;99.90
2757;DHT22;1386;50.862;6.494;2023-07-08T06:56:13;20.80;99.90
2757;DHT22;1386;50.862;6.494;2023-07-08T06:58:40;21.00;99.90
2757;DHT22;1386;50.862;6.494;2023-07-08T07:01:08;21.20;99.90
2757;DHT22;1386;50.862;6.494;2023-07-08T07:03:35;21.50;99.90
2757;DHT22;1386;50.862;6.494;2023-07-08T07:06:01;21.70;99.90
2757;DHT22;1386;50.862;6.494;2023-07-08T07:08:28;21.80;99.90
2757;DHT22;1386;50.862;6.494;2023-07-08T07:10:55;22.00;99.90
2757;DHT22;1386;50.862;6.494;2023-07-08T07:13:22;22.20;99.90
2757;DHT22;1386;50.862;6.494;2023-07-08T07:15:49;22.40;99.90
2757;DHT22;1386;50.862;6.494;2023-07-08T07:18:19;22.60;99.90
2757;DHT22;1386;50.862;6.494;2023-07-08T07:20:54;22.80;99.90
2757;DHT22;1386;50.862;6.494;2023-07-08T07:23:21;23.00;99.90
2757;DHT22;1386;50.862;6.494;2023-07-08T07:25:48;23.10;99.90
2757;DHT22;1386;50.862;6.494;2023-07-08T07:28:15;23.40;99.90
2757;DHT22;1386;50.862;6.494;2023-07-08T07:30:47;23.70;99.90
2757;DHT22;1386;50.862;6.494;2023-07-08T07:33:23;23.90;99.90
2757;DHT22;1386;50.862;6.494;2023-07-08T07:35:59;24.00;99.90
2757;DHT22;1386;50.862;6.494;2023-07-08T07:38:26;24.30;99.90
2757;DHT22;1386;50.862;6.494;2023-07-08T07:40:54;24.40;99.90
2757;DHT22;1386;50.862;6.494;2023-07-08T07:43:25;24.60;99.90
2757;DHT22;1386;50.862;6.494;2023-07-08T07:45:52;24.80;99.90
2757;DHT22;1386;50.862;6.494;2023-07-08T07:48:20;24.90;99.90
2757;DHT22;1386;50.862;6.494;2023-07-08T07:50:49;25.10;99.90
2757;DHT22;1386;50.862;6.494;2023-07-08T07:53:17;25.30;99.90
2757;DHT22;1386;50.862;6.494;2023-07-08T07:55:44;25.40;99.90
2757;DHT22;1386;50.862;6.494;2023-07-08T07:58:11;25.50;99.90
2757;DHT22;1386;50.862;6.494;2023-07-08T08:00:39;25.70;99.90
2757;DHT22;1386;50.862;6.494;2023-07-08T08:03:08;25.90;99.90
2757;DHT22;1386;50.862;6.494;2023-07-08T08:05:36;26.10;99.90
2757;DHT22;1386;50.862;6.494;2023-07-08T08:08:13;26.20;99.90
2757;DHT22;1386;50.862;6.494;2023-07-08T08:10:58;26.30;99.90
2757;DHT22;1386;50.862;6.494;2023-07-08T08:13:25;26.50;99.90
2757;DHT22;1386;50.862;6.494;2023-07-08T08:16:24;26.60;99.90
2757;DHT22;1386;50.862;6.494;2023-07-08T08:18:53;26.70;99.90
2757;DHT22;1386;50.862;6.494;2023-07-08T08:21:21;26.90;99.90
2757;DHT22;1386;50.862;6.494;2023-07-08T08:23:49;27.00;99.90
2757;DHT22;1386;50.862;6.494;2023-07-08T08:26:16;27.20;99.90
2757;DHT22;1386;50.862;6.494;2023-07-08T08:28:43;27.40;99.90
2757;DHT22;1386;50.862;6.494;2023-07-08T08:34:02;27.70;99.80
2757;DHT22;1386;50.862;6.494;2023-07-08T08:36:32;27.90;98.00
2757;DHT22;1386;50.862;6.494;2023-07-08T08:39:00;28.10;98.40
2757;DHT22;1386;50.862;6.494;2023-07-08T08:41:34;28.30;97.20
2757;DHT22;1386;50.862;6.494;2023-07-08T08:44:03;28.50;94.50
2757;DHT22;1386;50.862;6.494;2023-07-08T08:46:38;28.60;91.50
2757;DHT22;1386;50.862;6.494;2023-07-08T08:49:16;28.70;91.20
2757;DHT22;1386;50.862;6.494;2023-07-08T08:51:45;29.00;90.60
2757;DHT22;1386;50.862;6.494;2023-07-08T08:54:13;29.10;90.00
2757;DHT22;1386;50.862;6.494;2023-07-08T08:56:47;29.30;88.70
2757;DHT22;1386;50.862;6.494;2023-07-08T08:59:22;29.50;86.60
2757;DHT22;1386;50.862;6.494;2023-07-08T09:01:51;29.60;85.60
2757;DHT22;1386;50.862;6.494;2023-07-08T09:04:27;29.70;82.90
2757;DHT22;1386;50.862;6.494;2023-07-08T09:07:08;29.90;81.50
2757;DHT22;1386;50.862;6.494;2023-07-08T09:09:49;29.90;80.40
2757;DHT22;1386;50.862;6.494;2023-07-08T09:12:24;30.20;81.40
2757;DHT22;1386;50.862;6.494;2023-07-08T09:14:54;30.30;80.90
2757;DHT22;1386;50.862;6.494;2023-07-08T09:17:26;30.50;81.50
2757;DHT22;1386;50.862;6.494;2023-07-08T09:20:09;30.70;80.20
2757;DHT22;1386;50.862;6.494;2023-07-08T09:22:42;30.90;79.00
2757;DHT22;1386;50.862;6.494;2023-07-08T09:25:25;31.00;77.90
2757;DHT22;1386;50.862;6.494;2023-07-08T09:27:54;31.10;77.70
2757;DHT22;1386;50.862;6.494;2023-07-08T09:30:22;31.30;76.20
2757;DHT22;1386;50.862;6.494;2023-07-08T09:32:49;31.40;75.50
2757;DHT22;1386;50.862;6.494;2023-07-08T09:35:18;31.50;75.90
2757;DHT22;1386;50.862;6.494;2023-07-08T09:37:48;31.70;75.90
2757;DHT22;1386;50.862;6.494;2023-07-08T09:40:19;31.90;77.50
2757;DHT22;1386;50.862;6.494;2023-07-08T09:42:51;32.10;75.20
2757;DHT22;1386;50.862;6.494;2023-07-08T09:45:21;32.20;74.40
2757;DHT22;1386;50.862;6.494;2023-07-08T09:47:52;32.30;73.60
2757;DHT22;1386;50.862;6.494;2023-07-08T09:50:22;32.50;73.60
2757;DHT22;1386;50.862;6.494;2023-07-08T09:52:51;32.60;72.60
2757;DHT22;1386;50.862;6.494;2023-07-08T09:55:20;32.70;72.00
2757;DHT22;1386;50.862;6.494;2023-07-08T09:57:50;32.90;72.20
2757;DHT22;1386;50.862;6.494;2023-07-08T10:00:27;33.10;71.20
2757;DHT22;1386;50.862;6.494;2023-07-08T10:02:56;33.20;69.90
2757;DHT22;1386;50.862;6.494;2023-07-08T10:05:25;33.10;65.50
2757;DHT22;1386;50.862;6.494;2023-07-08T10:07:55;33.00;63.80
2757;DHT22;1386;50.862;6.494;2023-07-08T10:10:27;33.10;64.40
2757;DHT22;1386;50.862;6.494;2023-07-08T10:13:02;33.10;63.60
2757;DHT22;1386;50.862;6.494;2023-07-08T10:15:34;33.20;63.40
2757;DHT22;1386;50.862;6.494;2023-07-08T10:18:10;33.40;62.40
2757;DHT22;1386;50.862;6.494;2023-07-08T10:20:48;33.40;62.30
2757;DHT22;1386;50.862;6.494;2023-07-08T10:23:30;33.40;60.30
2757;DHT22;1386;50.862;6.494;2023-07-08T10:26:10;33.30;60.90
2757;DHT22;1386;50.862;6.494;2023-07-08T10:28:45;33.30;59.80
2757;DHT22;1386;50.862;6.494;2023-07-08T10:31:23;33.10;57.80
2757;DHT22;1386;50.862;6.494;2023-07-08T10:34:11;33.20;58.40
2757;DHT22;1386;50.862;6.494;2023-07-08T10:36:51;33.20;59.30
2757;DHT22;1386;50.862;6.494;2023-07-08T10:39:37;33.40;58.80
2757;DHT22;1386;50.862;6.494;2023-07-08T10:42:21;33.50;58.50
2757;DHT22;1386;50.862;6.494;2023-07-08T10:44:57;33.60;57.60
2757;DHT22;1386;50.862;6.494;2023-07-08T10:47:47;33.70;58.00
2757;DHT22;1386;50.862;6.494;2023-07-08T10:50:32;33.80;58.20
2757;DHT22;1386;50.862;6.494;2023-07-08T10:53:24;33.80;56.80
2757;DHT22;1386;50.862;6.494;2023-07-08T10:55:58;34.00;57.10
2757;DHT22;1386;50.862;6.494;2023-07-08T10:58:39;34.00;55.90
2757;DHT22;1386;50.862;6.494;2023-07-08T11:01:20;34.00;56.50
2757;DHT22;1386;50.862;6.494;2023-07-08T11:04:00;34.20;56.80
2757;DHT22;1386;50.862;6.494;2023-07-08T11:06:45;34.30;55.90
2757;DHT22;1386;50.862;6.494;2023-07-08T11:09:17;34.30;56.00
2757;DHT22;1386;50.862;6.494;2023-07-08T11:11:56;34.30;55.60
2757;DHT22;1386;50.862;6.494;2023-07-08T11:14:42;34.50;56.90
2757;DHT22;1386;50.862;6.494;2023-07-08T11:17:15;34.50;56.50
2757;DHT22;1386;50.862;6.494;2023-07-08T11:19:50;34.70;57.20
2757;DHT22;1386;50.862;6.494;2023-07-08T11:22:21;34.70;56.30
2757;DHT22;1386;50.862;6.494;2023-07-08T11:24:54;34.80;56.80
2757;DHT22;1386;50.862;6.494;2023-07-08T11:27:25;34.60;55.30
2757;DHT22;1386;50.862;6.494;2023-07-08T11:30:06;34.50;55.30
2757;DHT22;1386;50.862;6.494;2023-07-08T11:32:40;34.60;54.80
2757;DHT22;1386;50.862;6.494;2023-07-08T11:35:19;34.50;55.00
2757;DHT22;1386;50.862;6.494;2023-07-08T11:38:15;34.60;55.20
2757;DHT22;1386;50.862;6.494;2023-07-08T11:44:27;34.80;55.40
2757;DHT22;1386;50.862;6.494;2023-07-08T11:47:10;35.00;55.00
2757;DHT22;1386;50.862;6.494;2023-07-08T11:49:46;35.00;55.00
2757;DHT22;1386;50.862;6.494;2023-07-08T11:52:20;35.20;55.40
2757;DHT22;1386;50.862;6.494;2023-07-08T11:54:57;35.20;53.60
2757;DHT22;1386;50.862;6.494;2023-07-08T11:57:29;35.20;52.50
2757;DHT22;1386;50.862;6.494;2023-07-08T12:00:15;35.30;53.90
2757;DHT22;1386;50.862;6.494;2023-07-08T12:03:21;35.40;52.40
2757;DHT22;1386;50.862;6.494;2023-07-08T12:05:48;35.30;51.70
2757;DHT22;1386;50.862;6.494;2023-07-08T12:08:21;35.20;51.00
2757;DHT22;1386;50.862;6.494;2023-07-08T12:10:59;35.30;52.40
2757;DHT22;1386;50.862;6.494;2023-07-08T12:13:26;35.50;53.10
2757;DHT22;1386;50.862;6.494;2023-07-08T12:15:55;35.60;52.50
2757;DHT22;1386;50.862;6.494;2023-07-08T12:18:28;35.40;51.30
2757;DHT22;1386;50.862;6.494;2023-07-08T12:21:01;35.40;51.50
2757;DHT22;1386;50.862;6.494;2023-07-08T12:23:31;35.50;51.90
2757;DHT22;1386;50.862;6.494;2023-07-08T12:26:31;35.40;52.40
2757;DHT22;1386;50.862;6.494;2023-07-08T12:29:22;35.50;52.70
2757;DHT22;1386;50.862;6.494;2023-07-08T12:32:08;35.40;52.00
2757;DHT22;1386;50.862;6.494;2023-07-08T12:34:39;35.50;52.20
2757;DHT22;1386;50.862;6.494;2023-07-08T12:37:12;35.40;50.30
2757;DHT22;1386;50.862;6.494;2023-07-08T12:39:56;35.50;51.30
2757;DHT22;1386;50.862;6.494;2023-07-08T12:42:31;35.50;50.90
2757;DHT22;1386;50.862;6.494;2023-07-08T12:45:07;35.50;51.10
2757;DHT22;1386;50.862;6.494;2023-07-08T12:48:33;35.50;50.80
2757;DHT22;1386;50.862;6.494;2023-07-08T12:51:28;35.50;51.70
2757;DHT22;1386;50.862;6.494;2023-07-08T12:54:02;35.50;51.20
2757;DHT22;1386;50.862;6.494;2023-07-08T12:56:44;35.50;51.20
2757;DHT22;1386;50.862;6.494;2023-07-08T12:59:38;35.50;50.80
2757;DHT22;1386;50.862;6.494;2023-07-08T13:02:21;35.30;50.80
2757;DHT22;1386;50.862;6.494;2023-07-08T13:04:51;35.30;51.20
2757;DHT22;1386;50.862;6.494;2023-07-08T13:07:35;35.20;50.60
2757;DHT22;1386;50.862;6.494;2023-07-08T13:10:21;35.40;51.50
2757;DHT22;1386;50.862;6.494;2023-07-08T15:34:19;33.10;54.00
2757;DHT22;1386;50.862;6.494;2023-07-08T15:36:47;33.10;54.70
2757;DHT22;1386;50.862;6.494;2023-07-08T15:39:14;33.00;55.70
2757;DHT22;1386;50.862;6.494;2023-07-08T15:41:41;33.00;55.70
2757;DHT22;1386;50.862;6.494;2023-07-08T15:44:09;33.00;55.60
2757;DHT22;1386;50.862;6.494;2023-07-08T15:46:43;33.00;56.20
2757;DHT22;1386;50.862;6.494;2023-07-08T15:49:15;33.00;56.20
2757;DHT22;1386;50.862;6.494;2023-07-08T15:51:47;33.00;57.00
2757;DHT22;1386;50.862;6.494;2023-07-08T15:54:14;33.00;57.40
2757;DHT22;1386;50.862;6.494;2023-07-08T15:56:41;33.00;57.80
2757;DHT22;1386;50.862;6.494;2023-07-08T15:59:12;32.90;58.10
2757;DHT22;1386;50.862;6.494;2023-07-08T16:01:41;33.00;57.90
2757;DHT22;1386;50.862;6.494;2023-07-08T16:04:21;33.00;58.70
2757;DHT22;1386;50.862;6.494;2023-07-08T16:06:48;33.00;58.70
2757;DHT22;1386;50.862;6.494;2023-07-08T16:09:24;33.00;58.40
2757;DHT22;1386;50.862;6.494;2023-07-08T16:11:51;33.00;58.80
2757;DHT22;1386;50.862;6.494;2023-07-08T16:14:19;33.00;60.40
2757;DHT22;1386;50.862;6.494;2023-07-08T16:16:48;32.90;59.00
2757;DHT22;1386;50.862;6.494;2023-07-08T16:19:15;32.90;58.90
2757;DHT22;1386;50.862;6.494;2023-07-08T16:21:43;33.00;58.70
2757;DHT22;1386;50.862;6.494;2023-07-08T16:24:10;32.90;58.40
